Time;durP1;ratioP1;P1;durP2;ratioP2;P2;SDS_P1;SDS_P2;PMS_P1;PMS_P2;Temp;Humidity;BMP_temperature;BMP_pressure;BME280_temperature;BME280_humidity;BME280_pressure;Samples;Min_cycle;Max_cycle;Signal;HPM_P1;HPM_P2
2023/04/19 00:01:42;;;;;;;;;;;;;;;7.87;61.72;102259.34;4170867;28;19963;-70
2023/04/19 00:03:44;;;;;;;;;;;;;;;7.87;61.68;102251.28;4173203;28;20003;-69
2023/04/19 00:05:47;;;;;;;;;;;;;;;7.85;61.32;102258.63;4171897;28;19975;-70
2023/04/19 00:07:49;;;;;;;;;;;;;;;7.87;61.64;102251.28;4172729;28;20004;-70
2023/04/19 00:09:54;;;;;;;;;;;;;;;7.87;61.20;102247.75;4171593;28;20024;-70
2023/04/19 00:11:57;;;;;;;;;;;;;;;7.87;60.89;102251.28;4171251;28;20012;-70
2023/04/19 00:13:59;;;;;;;;;;;;;;;7.86;60.80;102251.41;4171981;28;20032;-70
2023/04/19 00:16:01;;;;;;;;;;;;;;;7.84;60.64;102246.13;4172532;28;20172;-70
2023/04/19 00:18:03;;;;;;;;;;;;;;;7.84;60.64;102246.13;4172498;28;20016;-69
2023/04/19 00:20:06;;;;;;;;;;;;;;;7.83;60.48;102244.41;4172079;28;20016;-69
2023/04/19 00:22:08;;;;;;;;;;;;;;;7.82;60.16;102237.34;4167748;28;20441;-69
2023/04/19 00:24:10;;;;;;;;;;;;;;;7.83;60.14;102239.03;4173449;28;20028;-69
2023/04/19 00:26:14;;;;;;;;;;;;;;;7.80;59.71;102236.59;4172850;28;20012;-69
2023/04/19 00:28:19;;;;;;;;;;;;;;;7.80;59.53;102235.75;4171178;28;20385;-69
2023/04/19 00:30:21;;;;;;;;;;;;;;;7.79;59.66;102240.28;4186338;28;20019;-69
2023/04/19 00:32:26;;;;;;;;;;;;;;;7.77;58.47;102228.75;4186495;28;19974;-70
2023/04/19 00:34:32;;;;;;;;;;;;;;;7.75;58.64;102236.97;4172231;28;19933;-70
2023/04/19 00:36:34;;;;;;;;;;;;;;;7.75;58.56;102242.34;4170587;28;20027;-70
2023/04/19 00:38:36;;;;;;;;;;;;;;;7.73;58.41;102238.91;4166804;28;20618;-70
2023/04/19 00:40:39;;;;;;;;;;;;;;;7.71;58.28;102238.19;4169891;28;20027;-70
2023/04/19 00:42:41;;;;;;;;;;;;;;;7.70;57.86;102238.31;4170060;28;19968;-69
2023/04/19 00:44:44;;;;;;;;;;;;;;;7.70;57.69;102239.16;4169160;28;20023;-69
2023/04/19 00:46:47;;;;;;;;;;;;;;;7.70;57.54;102238.31;4172929;28;20482;-70
2023/04/19 00:48:51;;;;;;;;;;;;;;;7.69;57.31;102232.06;4172555;28;20471;-69
2023/04/19 00:50:54;;;;;;;;;;;;;;;7.70;57.38;102235.63;4166547;28;19925;-69
2023/04/19 00:52:56;;;;;;;;;;;;;;;7.68;57.02;102233.06;4166570;28;20008;-70
2023/04/19 00:55:00;;;;;;;;;;;;;;;7.68;56.74;102234.88;4187550;28;20020;-69
2023/04/19 00:57:03;;;;;;;;;;;;;;;7.67;56.48;102241.25;4171020;28;20015;-69
2023/04/19 00:59:08;;;;;;;;;;;;;;;7.65;56.43;102240.50;4179959;28;20036;-70
2023/04/19 01:01:13;;;;;;;;;;;;;;;7.64;56.42;102247.72;4170798;28;19967;-70
2023/04/19 01:03:16;;;;;;;;;;;;;;;7.64;56.17;102242.34;4170830;28;19932;-69
2023/04/19 01:05:18;;;;;;;;;;;;;;;7.63;56.26;102240.63;4172181;28;20510;-70
2023/04/19 01:07:23;;;;;;;;;;;;;;;7.64;56.14;102245.03;4169254;28;20035;-69
2023/04/19 01:09:25;;;;;;;;;;;;;;;7.64;55.57;102244.19;4187240;28;20008;-68
2023/04/19 01:11:27;;;;;;;;;;;;;;;7.64;55.78;102241.50;4172688;28;20032;-69
2023/04/19 01:13:29;;;;;;;;;;;;;;;7.65;55.99;102245.88;4170650;28;20028;-69
2023/04/19 01:15:32;;;;;;;;;;;;;;;7.64;56.05;102249.56;4152319;28;20024;-69
2023/04/19 01:17:35;;;;;;;;;;;;;;;7.64;55.69;102249.56;4169740;28;20530;-69
2023/04/19 01:19:39;;;;;;;;;;;;;;;7.66;55.72;102250.28;4168206;28;20032;-69
2023/04/19 01:21:42;;;;;;;;;;;;;;;7.66;55.85;102245.75;4168912;28;20015;-68
2023/04/19 01:23:46;;;;;;;;;;;;;;;7.64;55.64;102247.72;4178527;28;19928;-69
2023/04/19 01:25:49;;;;;;;;;;;;;;;7.60;55.33;102254.28;4171012;28;19929;-68
2023/04/19 01:27:50;;;;;;;;;;;;;;;7.57;55.40;102247.34;4171528;28;20023;-69
2023/04/19 01:29:52;;;;;;;;;;;;;;;7.55;55.15;102252.00;4171815;28;20027;-68
2023/04/19 01:31:54;;;;;;;;;;;;;;;7.52;55.02;102249.56;4170579;28;20032;-69
2023/04/19 01:33:56;;;;;;;;;;;;;;;7.48;55.06;102244.53;4171190;28;20011;-69
2023/04/19 01:35:59;;;;;;;;;;;;;;;7.44;55.43;102243.91;4179094;28;20042;-69
2023/04/19 01:38:01;;;;;;;;;;;;;;;7.43;55.23;102241.31;4171323;28;20015;-69
2023/04/19 01:40:06;;;;;;;;;;;;;;;7.43;55.54;102231.44;4171546;28;20028;-69
2023/04/19 01:42:08;;;;;;;;;;;;;;;7.40;55.40;102235.22;4171323;28;20015;-69
2023/04/19 01:44:12;;;;;;;;;;;;;;;7.40;55.31;102237.06;4170273;28;20228;-69
2023/04/19 01:46:14;;;;;;;;;;;;;;;7.37;54.62;102237.31;4168407;28;20467;-69
2023/04/19 01:48:16;;;;;;;;;;;;;;;7.32;54.82;102234.09;4170348;28;20017;-69
2023/04/19 01:50:18;;;;;;;;;;;;;;;7.30;55.01;102233.38;4169317;28;20530;-70
2023/04/19 01:52:20;;;;;;;;;;;;;;;7.24;54.98;102226.66;4169881;28;20032;-69
2023/04/19 01:54:23;;;;;;;;;;;;;;;7.24;55.17;102223.09;4170156;28;20012;-69
2023/04/19 01:56:27;;;;;;;;;;;;;;;7.22;55.24;102229.47;4162647;28;20390;-69
2023/04/19 01:58:29;;;;;;;;;;;;;;;7.19;55.30;102218.94;4185291;28;20036;-69
2023/04/19 02:00:31;;;;;;;;;;;;;;;7.20;55.40;102211.72;4170636;28;20020;-69
2023/04/19 02:02:33;;;;;;;;;;;;;;;7.18;55.28;102221.75;4170031;28;20031;-69
2023/04/19 02:04:36;;;;;;;;;;;;;;;7.18;55.23;102219.91;4168923;28;19929;-69
2023/04/19 02:06:40;;;;;;;;;;;;;;;7.14;55.46;102215.72;4178326;28;20031;-69
2023/04/19 02:08:42;;;;;;;;;;;;;;;7.11;55.76;102224.03;4172631;28;20024;-69
2023/04/19 02:10:44;;;;;;;;;;;;;;;7.08;55.79;102224.25;4167669;28;20020;-69
2023/04/19 02:12:48;;;;;;;;;;;;;;;7.07;55.71;102227.94;4168445;28;20031;-69
2023/04/19 02:14:50;;;;;;;;;;;;;;;7.07;55.89;102219.00;4178371;28;20017;-69
2023/04/19 02:16:52;;;;;;;;;;;;;;;7.03;55.66;102221.94;4170450;28;20056;-69
2023/04/19 02:18:54;;;;;;;;;;;;;;;6.99;55.91;102217.78;4170427;28;20028;-69
2023/04/19 02:20:56;;;;;;;;;;;;;;;6.96;56.09;102214.47;4168860;28;20450;-69
2023/04/19 02:23:00;;;;;;;;;;;;;;;6.94;56.15;102216.41;4161373;28;20334;-68
2023/04/19 02:25:04;;;;;;;;;;;;;;;6.92;56.16;102215.69;4136997;28;19929;-70
2023/04/19 02:27:07;;;;;;;;;;;;;;;6.87;55.93;102212.50;4170871;28;20015;-70
2023/04/19 02:29:11;;;;;;;;;;;;;;;6.85;56.41;102215.31;4171227;28;19972;-70
2023/04/19 02:31:14;;;;;;;;;;;;;;;6.85;56.69;102209.94;4145525;28;19932;-69
2023/04/19 02:33:19;;;;;;;;;;;;;;;6.82;56.41;102215.53;4185453;28;20007;-69
2023/04/19 02:35:21;;;;;;;;;;;;;;;6.82;56.20;102210.16;4166754;28;20027;-70
2023/04/19 02:37:23;;;;;;;;;;;;;;;6.78;56.57;102208.66;4163960;28;20053;-69
2023/04/19 02:39:25;;;;;;;;;;;;;;;6.74;56.33;102202.69;4170304;28;20019;-69
2023/04/19 02:41:28;;;;;;;;;;;;;;;6.70;56.55;102205.72;4170262;28;20008;-69
2023/04/19 02:43:31;;;;;;;;;;;;;;;6.70;56.69;102197.66;4169003;28;20019;-69
2023/04/19 02:45:35;;;;;;;;;;;;;;;6.66;56.54;102205.06;4170272;28;20334;-69
2023/04/19 02:47:37;;;;;;;;;;;;;;;6.64;57.15;102201.66;4169463;28;20435;-69
2023/04/19 02:49:40;;;;;;;;;;;;;;;6.64;57.10;102209.69;4169604;28;20048;-69
2023/04/19 02:51:43;;;;;;;;;;;;;;;6.64;56.84;102207.88;4168828;28;20024;-69
2023/04/19 02:53:47;;;;;;;;;;;;;;;6.66;56.91;102205.94;4176843;28;20430;-69
2023/04/19 02:55:49;;;;;;;;;;;;;;;6.65;57.16;102195.31;4169231;28;20019;-69
2023/04/19 02:57:54;;;;;;;;;;;;;;;6.63;57.24;102191.88;4161406;28;20032;-69
2023/04/19 02:59:56;;;;;;;;;;;;;;;6.67;57.35;102190.69;4161355;28;20600;-70
2023/04/19 03:02:00;;;;;;;;;;;;;;;6.66;57.02;102197.88;4160437;28;20020;-70
2023/04/19 03:04:02;;;;;;;;;;;;;;;6.62;57.05;102188.34;4161452;28;20024;-69
2023/04/19 03:06:04;;;;;;;;;;;;;;;6.64;57.24;102188.22;4169704;28;20540;-69
2023/04/19 03:08:09;;;;;;;;;;;;;;;6.61;57.31;102189.31;4169454;28;20020;-69
2023/04/19 03:10:11;;;;;;;;;;;;;;;6.62;57.84;102187.50;4168078;28;20020;-69
2023/04/19 03:12:16;;;;;;;;;;;;;;;6.61;57.55;102189.31;4169006;28;20028;-69
2023/04/19 03:14:18;;;;;;;;;;;;;;;6.61;57.50;102186.63;4168422;28;19971;-69
2023/04/19 03:16:21;;;;;;;;;;;;;;;6.59;58.09;102190.41;4161540;28;19929;-69
2023/04/19 03:18:24;;;;;;;;;;;;;;;6.60;58.29;102184.06;4177673;28;20434;-68
2023/04/19 03:20:29;;;;;;;;;;;;;;;6.54;58.02;102176.50;4178221;28;20040;-68
2023/04/19 03:22:32;;;;;;;;;;;;;;;6.52;58.48;102167.66;4176330;28;20019;-68
2023/04/19 03:24:35;;;;;;;;;;;;;;;6.52;58.56;102175.72;4169357;28;20024;-69
2023/04/19 03:26:49;;;;;;;;;;;;;;;6.50;58.71;102175.84;4168126;28;19928;-69
2023/04/19 03:28:56;;;;;;;;;;;;;;;6.49;59.01;102177.69;4167857;28;20012;-69
2023/04/19 03:31:21;;;;;;;;;;;;;;;6.47;59.19;102174.25;4164564;28;20811;-69
2023/04/19 03:33:27;;;;;;;;;;;;;;;6.47;58.95;102166.22;4169148;28;20015;-69
2023/04/19 03:35:31;;;;;;;;;;;;;;;6.44;59.58;102169.13;4170447;28;20502;-69
2023/04/19 03:37:42;;;;;;;;;;;;;;;6.40;59.41;102159.56;4188362;28;20015;-69
2023/04/19 03:39:45;;;;;;;;;;;;;;;6.42;59.83;102160.31;4180978;28;20019;-69
2023/04/19 03:41:51;;;;;;;;;;;;;;;6.38;59.77;102157.97;4172711;28;20012;-68
2023/04/19 03:44:00;;;;;;;;;;;;;;;6.40;59.92;102156.03;4187940;28;20024;-69
2023/04/19 03:46:02;;;;;;;;;;;;;;;6.38;60.04;102144.56;4174064;28;20023;-69
2023/04/19 03:48:04;;;;;;;;;;;;;;;6.32;59.98;102148.56;4172637;28;20387;-68
2023/04/19 03:50:09;;;;;;;;;;;;;;;6.29;60.17;102148.78;4170763;28;20043;-69
2023/04/19 03:52:13;;;;;;;;;;;;;;;6.29;60.41;102148.78;4162510;28;20024;-69
2023/04/19 03:54:15;;;;;;;;;;;;;;;6.28;60.50;102145.22;4173300;28;20015;-69
2023/04/19 03:56:17;;;;;;;;;;;;;;;6.27;60.64;102151.59;4170862;28;20339;-68
2023/04/19 03:58:19;;;;;;;;;;;;;;;6.26;60.64;102149.88;4171144;28;20008;-69
2023/04/19 04:00:28;;;;;;;;;;;;;;;6.23;60.87;102138.53;4171117;28;20051;-69
2023/04/19 04:02:34;;;;;;;;;;;;;;;6.21;61.25;102137.78;4187194;28;20027;-68
2023/04/19 04:04:36;;;;;;;;;;;;;;;6.21;61.28;102144.00;4187984;28;19946;-68
2023/04/19 04:06:39;;;;;;;;;;;;;;;6.22;61.23;102144.84;4172809;28;20027;-69
2023/04/19 04:08:42;;;;;;;;;;;;;;;6.21;61.23;102149.38;4170746;28;20382;-68
2023/04/19 04:10:44;;;;;;;;;;;;;;;6.14;61.68;102142.72;4154108;28;21602;-69
2023/04/19 04:12:47;;;;;;;;;;;;;;;6.12;61.89;102144.69;4170133;28;20454;-69
2023/04/19 04:14:56;;;;;;;;;;;;;;;6.11;62.40;102142.94;4171280;28;20023;-68
2023/04/19 04:16:58;;;;;;;;;;;;;;;6.11;62.61;102146.50;4163390;28;20111;-68
2023/04/19 04:19:01;;;;;;;;;;;;;;;6.12;62.51;102145.53;4162346;28;20452;-68
2023/04/19 04:21:06;;;;;;;;;;;;;;;6.07;63.08;102139.66;4161042;28;20028;-68
2023/04/19 04:23:13;;;;;;;;;;;;;;;6.04;63.31;102130.97;4169076;28;20026;-68
2023/04/19 04:25:21;;;;;;;;;;;;;;;6.00;63.86;102134.84;4172216;28;20015;-68
2023/04/19 04:27:25;;;;;;;;;;;;;;;6.05;63.73;102127.31;4178223;28;20080;-68
2023/04/19 04:29:29;;;;;;;;;;;;;;;6.04;63.85;102131.84;4169509;28;20040;-68
2023/04/19 04:31:35;;;;;;;;;;;;;;;6.06;64.26;102134.41;4178420;28;20008;-68
2023/04/19 04:33:37;;;;;;;;;;;;;;;6.08;64.39;102130.66;4168356;28;20479;-68
2023/04/19 04:35:43;;;;;;;;;;;;;;;6.08;64.09;102130.66;4169587;28;20019;-68
2023/04/19 04:37:52;;;;;;;;;;;;;;;6.07;64.58;102128.91;4168585;28;20048;-68
2023/04/19 04:39:58;;;;;;;;;;;;;;;6.08;64.40;102130.66;4179061;28;20052;-68
2023/04/19 04:42:01;;;;;;;;;;;;;;;6.05;64.80;102125.50;4168923;28;20027;-68
2023/04/19 04:44:03;;;;;;;;;;;;;;;6.08;64.94;102122.59;4169734;28;20024;-68
2023/04/19 04:46:05;;;;;;;;;;;;;;;6.08;64.93;102116.34;4168616;28;20024;-69
2023/04/19 04:48:13;;;;;;;;;;;;;;;6.11;64.96;102121.50;4152380;28;20406;-68
2023/04/19 04:50:15;;;;;;;;;;;;;;;6.12;65.22;102118.69;4169778;28;20015;-69
2023/04/19 04:52:19;;;;;;;;;;;;;;;6.16;65.31;102110.41;4170024;28;20450;-68
2023/04/19 04:54:36;;;;;;;;;;;;;;;6.19;65.29;102118.25;4153249;28;20384;-69
2023/04/19 04:56:41;;;;;;;;;;;;;;;6.17;65.49;102114.81;4176501;28;20024;-68
2023/04/19 04:58:43;;;;;;;;;;;;;;;6.17;65.63;102117.50;4186119;28;20427;-68
2023/04/19 05:00:50;;;;;;;;;;;;;;;6.18;65.65;102121.91;4186948;28;20031;-68
2023/04/19 05:02:52;;;;;;;;;;;;;;;6.18;65.73;102116.56;4178011;28;20023;-67
2023/04/19 05:04:55;;;;;;;;;;;;;;;6.19;65.84;102113.75;4185714;28;20023;-68
2023/04/19 05:06:57;;;;;;;;;;;;;;;6.22;65.92;102104.59;4169926;28;20462;-68
2023/04/19 05:09:02;;;;;;;;;;;;;;;6.22;66.20;102109.97;4167960;28;20475;-68
2023/04/19 05:11:09;;;;;;;;;;;;;;;6.25;66.34;102099.88;4169577;28;20653;-68
2023/04/19 05:13:14;;;;;;;;;;;;;;;6.28;65.92;102101.47;4176675;28;20028;-69
2023/04/19 05:15:16;;;;;;;;;;;;;;;6.28;66.14;102093.41;4168257;28;20015;-68
2023/04/19 05:17:24;;;;;;;;;;;;;;;6.31;66.20;102096.72;4168031;28;20024;-69
2023/04/19 05:19:27;;;;;;;;;;;;;;;6.31;66.12;102104.75;4144248;28;19967;-68
2023/04/19 05:21:36;;;;;;;;;;;;;;;6.30;66.26;102099.50;4167207;28;20023;-68
2023/04/19 05:23:40;;;;;;;;;;;;;;;6.28;66.22;102096.94;4168326;28;20451;-67
2023/04/19 05:25:42;;;;;;;;;;;;;;;6.29;66.35;102092.44;4168725;28;20486;-67
2023/04/19 05:27:45;;;;;;;;;;;;;;;6.28;66.32;102098.78;4165670;28;20514;-68
2023/04/19 05:29:50;;;;;;;;;;;;;;;6.28;66.58;102086.19;4158695;28;20024;-67
2023/04/19 05:31:52;;;;;;;;;;;;;;;6.30;66.83;102086.97;4165231;28;20037;-68
2023/04/19 05:34:06;;;;;;;;;;;;;;;6.32;66.60;102090.38;4184049;28;20032;-68
2023/04/19 05:36:09;;;;;;;;;;;;;;;6.34;66.60;102086.72;4168721;28;20024;-68
2023/04/19 05:38:11;;;;;;;;;;;;;;;6.35;66.63;102088.44;4168239;28;20052;-68
2023/04/19 05:40:13;;;;;;;;;;;;;;;6.37;66.62;102083.81;4162117;28;20565;-68
2023/04/19 05:42:15;;;;;;;;;;;;;;;6.40;66.71;102083.59;4169191;28;20015;-68
2023/04/19 05:44:17;;;;;;;;;;;;;;;6.41;66.94;102085.28;4169121;28;20884;-68
2023/04/19 05:46:20;;;;;;;;;;;;;;;6.43;66.64;102084.19;4171065;28;20013;-67
2023/04/19 05:48:24;;;;;;;;;;;;;;;6.45;66.49;102074.19;4186856;28;20051;-68
2023/04/19 05:50:45;;;;;;;;;;;;;;;6.47;66.66;102083.00;4162393;28;20032;-67
2023/04/19 05:53:01;;;;;;;;;;;;;;;6.51;66.55;102078.25;4168360;28;19960;-68
2023/04/19 05:55:03;;;;;;;;;;;;;;;6.55;66.65;102092.28;4169876;28;20035;-68
2023/04/19 05:57:07;;;;;;;;;;;;;;;6.56;66.63;102070.69;4160570;28;20502;-68
2023/04/19 05:59:10;;;;;;;;;;;;;;;6.61;66.65;102084.59;4162297;28;20051;-68
2023/04/19 06:01:12;;;;;;;;;;;;;;;6.63;66.07;102076.44;4160875;28;20019;-68
2023/04/19 06:03:16;;;;;;;;;;;;;;;6.63;66.34;102066.56;4169640;28;20471;-68
2023/04/19 06:05:18;;;;;;;;;;;;;;;6.66;66.05;102073.50;4169290;28;20423;-68
2023/04/19 06:07:20;;;;;;;;;;;;;;;6.68;66.15;102079.63;4167608;28;20024;-68
2023/04/19 06:09:22;;;;;;;;;;;;;;;6.67;65.86;102069.88;4169781;28;20023;-68
2023/04/19 06:11:25;;;;;;;;;;;;;;;6.68;66.04;102072.44;4170540;28;20020;-67
2023/04/19 06:13:27;;;;;;;;;;;;;;;6.72;66.18;102069.50;4169760;28;19929;-68
2023/04/19 06:15:29;;;;;;;;;;;;;;;6.74;66.07;102068.44;4170684;28;20016;-68
2023/04/19 06:17:31;;;;;;;;;;;;;;;6.77;65.85;102049.38;4169384;28;20019;-68
2023/04/19 06:19:35;;;;;;;;;;;;;;;6.81;65.84;102058.91;4168767;28;20023;-68
2023/04/19 06:21:37;;;;;;;;;;;;;;;6.84;65.80;102060.50;4170182;28;20016;-68
2023/04/19 06:23:39;;;;;;;;;;;;;;;6.88;65.74;102058.41;4169217;28;20024;-68
2023/04/19 06:25:41;;;;;;;;;;;;;;;6.92;65.79;102057.22;4170549;28;20023;-68
2023/04/19 06:27:43;;;;;;;;;;;;;;;6.91;65.26;102053.69;4170113;28;20448;-68
2023/04/19 06:29:45;;;;;;;;;;;;;;;6.94;65.30;102056.09;4168681;28;20028;-68
2023/04/19 06:31:47;;;;;;;;;;;;;;;6.98;65.24;102046.84;4170527;28;20041;-68
2023/04/19 06:33:49;;;;;;;;;;;;;;;7.00;64.86;102052.94;4169952;28;20371;-68
2023/04/19 06:35:53;;;;;;;;;;;;;;;7.06;65.22;102048.91;4169754;28;20020;-68
2023/04/19 06:37:55;;;;;;;;;;;;;;;7.08;64.91;102048.78;4166282;28;20016;-68
2023/04/19 06:39:57;;;;;;;;;;;;;;;7.10;64.76;102039.63;4167027;28;19992;-68
2023/04/19 06:41:59;;;;;;;;;;;;;;;7.11;64.25;102048.53;4169153;28;20049;-68
2023/04/19 06:44:01;;;;;;;;;;;;;;;7.08;64.22;102033.50;4170242;28;20015;-68
2023/04/19 06:46:03;;;;;;;;;;;;;;;7.15;64.28;102050.03;4169811;28;20051;-68
2023/04/19 06:48:05;;;;;;;;;;;;;;;7.17;63.94;102038.16;4169920;28;20020;-68
2023/04/19 06:50:08;;;;;;;;;;;;;;;7.20;63.58;102045.97;4170559;28;20020;-68
2023/04/19 06:52:11;;;;;;;;;;;;;;;7.24;63.83;102043.03;4168704;28;20021;-68
2023/04/19 06:54:13;;;;;;;;;;;;;;;7.28;63.60;102033.75;4169983;28;19929;-68
2023/04/19 06:56:15;;;;;;;;;;;;;;;7.29;63.25;102039.00;4170186;28;20054;-69
2023/04/19 06:58:17;;;;;;;;;;;;;;;7.33;63.20;102021.66;4170388;28;20019;-68
2023/04/19 07:00:19;;;;;;;;;;;;;;;7.36;62.95;102034.00;4168934;28;20024;-68
2023/04/19 07:02:23;;;;;;;;;;;;;;;7.38;62.63;102032.91;4176647;28;20086;-68
2023/04/19 07:04:26;;;;;;;;;;;;;;;7.40;62.36;102025.56;4169591;28;20025;-68
2023/04/19 07:06:29;;;;;;;;;;;;;;;7.44;62.55;102017.25;4170190;28;20016;-68
2023/04/19 07:08:33;;;;;;;;;;;;;;;7.49;62.54;102023.97;4168910;28;20028;-68
2023/04/19 07:10:35;;;;;;;;;;;;;;;7.53;62.17;102019.19;4169797;28;20051;-68
2023/04/19 07:12:37;;;;;;;;;;;;;;;7.57;61.96;102015.28;4170485;28;20031;-68
2023/04/19 07:14:39;;;;;;;;;;;;;;;7.59;61.10;102010.63;4170196;28;19971;-68
2023/04/19 07:16:41;;;;;;;;;;;;;;;7.62;61.20;102010.38;4170231;28;20020;-68
2023/04/19 07:18:43;;;;;;;;;;;;;;;7.67;61.36;102005.44;4169040;28;20475;-69
2023/04/19 07:20:47;;;;;;;;;;;;;;;7.70;61.13;102002.50;4169896;28;20052;-68
2023/04/19 07:22:49;;;;;;;;;;;;;;;7.74;61.41;102000.41;4170046;28;20035;-69
2023/04/19 07:24:54;;;;;;;;;;;;;;;7.78;61.35;101998.34;4169992;28;20458;-69
2023/04/19 07:26:56;;;;;;;;;;;;;;;7.82;61.02;101999.78;4169944;28;20023;-69
2023/04/19 07:28:58;;;;;;;;;;;;;;;7.85;60.59;102000.38;4169065;28;20039;-69
2023/04/19 07:31:00;;;;;;;;;;;;;;;7.88;60.26;101994.75;4184900;28;20015;-69
2023/04/19 07:33:03;;;;;;;;;;;;;;;7.94;60.60;101996.91;4168824;28;20021;-68
2023/04/19 07:35:06;;;;;;;;;;;;;;;7.98;59.55;101992.13;4169859;28;19963;-68
2023/04/19 07:37:08;;;;;;;;;;;;;;;8.00;59.32;101992.84;4167938;28;20008;-68
2023/04/19 07:39:10;;;;;;;;;;;;;;;8.03;59.40;101981.84;4169840;28;20028;-68
2023/04/19 07:41:15;;;;;;;;;;;;;;;8.06;58.97;101981.56;4170198;28;20031;-68
2023/04/19 07:43:17;;;;;;;;;;;;;;;8.09;59.39;101989.38;4168926;28;20020;-68
2023/04/19 07:45:19;;;;;;;;;;;;;;;8.11;58.50;101989.25;4169434;28;20365;-69
2023/04/19 07:47:21;;;;;;;;;;;;;;;8.14;58.83;101980.94;4169738;28;20023;-69
2023/04/19 07:49:23;;;;;;;;;;;;;;;8.17;58.13;101985.22;4169988;28;20021;-68
2023/04/19 07:51:26;;;;;;;;;;;;;;;8.19;58.83;101977.84;4170473;28;20385;-68
2023/04/19 07:53:28;;;;;;;;;;;;;;;8.24;58.90;101973.75;4168265;28;20381;-69
2023/04/19 07:55:31;;;;;;;;;;;;;;;8.27;60.06;101970.81;4170489;28;20386;-68
2023/04/19 07:57:35;;;;;;;;;;;;;;;8.31;60.31;101976.78;4169909;28;20367;-69
2023/04/19 07:59:37;;;;;;;;;;;;;;;8.37;59.42;101975.41;4170120;28;20023;-69
2023/04/19 08:01:39;;;;;;;;;;;;;;;8.39;59.66;101971.59;4168638;28;20019;-68
2023/04/19 08:03:41;;;;;;;;;;;;;;;8.41;59.70;101958.00;4169501;28;20016;-68
2023/04/19 08:05:43;;;;;;;;;;;;;;;8.44;58.81;101958.63;4169571;28;20029;-68
2023/04/19 08:07:45;;;;;;;;;;;;;;;8.48;58.37;101965.44;4170102;28;20365;-69
2023/04/19 08:09:47;;;;;;;;;;;;;;;8.51;58.66;101953.56;4168643;28;20040;-69
2023/04/19 08:11:49;;;;;;;;;;;;;;;8.55;59.05;101956.84;4169218;28;20478;-69
2023/04/19 08:13:52;;;;;;;;;;;;;;;8.58;59.68;101946.66;4169601;28;20008;-68
2023/04/19 08:15:54;;;;;;;;;;;;;;;8.61;59.99;101954.44;4168534;28;19925;-68
2023/04/19 08:17:56;;;;;;;;;;;;;;;8.65;60.33;101957.72;4168862;28;20015;-68
2023/04/19 08:19:58;;;;;;;;;;;;;;;8.69;59.84;101952.94;4169108;28;20040;-68
2023/04/19 08:22:02;;;;;;;;;;;;;;;8.72;59.10;101955.38;4168405;28;20013;-68
2023/04/19 08:24:06;;;;;;;;;;;;;;;8.74;58.94;101956.91;4172105;28;20019;-68
2023/04/19 08:26:08;;;;;;;;;;;;;;;8.79;57.11;101945.75;4171412;28;20023;-68
2023/04/19 08:28:11;;;;;;;;;;;;;;;8.84;57.99;101954.28;4172375;28;20019;-68
2023/04/19 08:30:14;;;;;;;;;;;;;;;8.86;58.23;101952.31;4169037;28;20023;-68
2023/04/19 08:32:16;;;;;;;;;;;;;;;8.90;58.77;101952.88;4171295;28;20027;-68
2023/04/19 08:34:18;;;;;;;;;;;;;;;8.90;59.79;101937.53;4171876;28;20450;-68
2023/04/19 08:36:21;;;;;;;;;;;;;;;8.91;60.24;101947.34;4172354;28;19932;-68
2023/04/19 08:38:23;;;;;;;;;;;;;;;8.92;60.38;101938.28;4171746;28;20011;-68
2023/04/19 08:40:26;;;;;;;;;;;;;;;8.97;60.16;101937.88;4172333;28;20124;-68
2023/04/19 08:42:28;;;;;;;;;;;;;;;9.01;59.29;101934.78;4170368;28;20627;-68
2023/04/19 08:44:30;;;;;;;;;;;;;;;9.05;59.63;101942.59;4172190;28;20668;-69
2023/04/19 08:46:34;;;;;;;;;;;;;;;9.05;59.58;101937.19;4172494;28;20028;-68
2023/04/19 08:48:36;;;;;;;;;;;;;;;9.08;58.86;101931.53;4171405;28;20367;-69
2023/04/19 08:50:40;;;;;;;;;;;;;;;9.12;59.09;101932.94;4172395;28;20040;-69
2023/04/19 08:52:42;;;;;;;;;;;;;;;9.15;59.36;101924.56;4172059;28;20021;-69
2023/04/19 08:54:44;;;;;;;;;;;;;;;9.17;59.07;101926.16;4170926;28;20640;-69
2023/04/19 08:56:46;;;;;;;;;;;;;;;9.22;58.85;101922.19;4172507;28;20406;-69
2023/04/19 08:58:48;;;;;;;;;;;;;;;9.25;58.75;101921.88;4172664;28;20663;-69
2023/04/19 09:00:50;;;;;;;;;;;;;;;9.28;58.78;101921.59;4170605;28;20399;-69
2023/04/19 09:02:54;;;;;;;;;;;;;;;9.36;58.25;101916.41;4172407;28;20017;-69
2023/04/19 09:04:57;;;;;;;;;;;;;;;9.38;58.10;101925.19;4171686;28;20020;-69
2023/04/19 09:06:59;;;;;;;;;;;;;;;9.42;57.80;101923.91;4172469;28;20019;-69
2023/04/19 09:09:14;;;;;;;;;;;;;;;9.44;57.97;101911.16;4172233;28;20016;-69
2023/04/19 09:11:16;;;;;;;;;;;;;;;9.48;57.89;101911.69;4172358;28;20024;-69
2023/04/19 09:13:18;;;;;;;;;;;;;;;9.50;58.01;101909.75;4172443;28;20024;-69
2023/04/19 09:15:34;;;;;;;;;;;;;;;9.52;56.90;101902.34;4172251;28;20639;-69
2023/04/19 09:17:37;;;;;;;;;;;;;;;9.56;57.03;101898.34;4170646;28;20390;-69
2023/04/19 09:19:47;;;;;;;;;;;;;;;9.59;57.09;101897.22;4171351;28;20028;-69
2023/04/19 09:21:50;;;;;;;;;;;;;;;9.61;56.41;101885.31;4170543;28;20012;-69
2023/04/19 09:23:55;;;;;;;;;;;;;;;9.60;56.43;101897.09;4172019;28;20015;-69
2023/04/19 09:25:59;;;;;;;;;;;;;;;9.60;56.32;101897.09;4172069;28;20024;-69
2023/04/19 09:28:10;;;;;;;;;;;;;;;9.60;56.70;101894.38;4171418;28;20020;-69
2023/04/19 09:30:13;;;;;;;;;;;;;;;9.60;56.56;101901.63;4170846;28;20003;-69
2023/04/19 09:32:15;;;;;;;;;;;;;;;9.61;56.43;101903.31;4170994;28;20427;-69
2023/04/19 09:34:18;;;;;;;;;;;;;;;9.62;56.29;101894.25;4171156;28;20020;-69
2023/04/19 09:36:28;;;;;;;;;;;;;;;9.62;57.31;101895.09;4170462;28;20365;-68
2023/04/19 09:38:30;;;;;;;;;;;;;;;9.64;57.45;101890.44;4171976;28;20026;-69
2023/04/19 09:40:32;;;;;;;;;;;;;;;9.67;57.18;101891.97;4171276;28;20023;-68
2023/04/19 09:42:44;;;;;;;;;;;;;;;9.68;57.74;101882.88;4171418;28;19925;-68
2023/04/19 09:44:56;;;;;;;;;;;;;;;9.70;56.41;101884.47;4171189;28;20019;-68
2023/04/19 09:46:58;;;;;;;;;;;;;;;9.70;56.47;101876.38;4171567;28;20027;-68
2023/04/19 09:49:17;;;;;;;;;;;;;;;9.73;57.11;101883.31;4170839;28;20032;-69
2023/04/19 09:51:19;;;;;;;;;;;;;;;9.76;57.38;101876.78;4171417;28;20015;-69
2023/04/19 09:53:23;;;;;;;;;;;;;;;9.78;57.30;101864.00;4169290;28;20028;-68
2023/04/19 09:55:26;;;;;;;;;;;;;;;9.80;57.26;101883.59;4171334;28;20363;-69
2023/04/19 09:57:27;;;;;;;;;;;;;;;9.81;57.60;101869.97;4171456;28;20016;-68
2023/04/19 09:59:29;;;;;;;;;;;;;;;9.83;57.70;101861.72;4171159;28;20027;-68
2023/04/19 10:01:31;;;;;;;;;;;;;;;9.85;57.26;101859.72;4169649;28;20434;-68
2023/04/19 10:03:33;;;;;;;;;;;;;;;9.88;57.60;101856.75;4171323;28;20027;-68
2023/04/19 10:05:39;;;;;;;;;;;;;;;9.91;57.57;101859.16;4171628;28;19929;-68
2023/04/19 10:07:41;;;;;;;;;;;;;;;10.00;57.12;101862.81;4171346;28;20011;-68
2023/04/19 10:09:44;;;;;;;;;;;;;;;10.08;56.33;101863.78;4170701;28;20015;-69
2023/04/19 10:11:47;;;;;;;;;;;;;;;10.10;56.68;101860.94;4170691;28;20064;-68
2023/04/19 10:13:49;;;;;;;;;;;;;;;10.09;56.97;101854.72;4171102;28;20004;-68
2023/04/19 10:15:51;;;;;;;;;;;;;;;10.13;56.50;101854.41;4170344;28;20019;-68
2023/04/19 10:17:53;;;;;;;;;;;;;;;10.16;56.79;101860.38;4169456;28;19973;-68
2023/04/19 10:19:57;;;;;;;;;;;;;;;10.16;56.71;101852.25;4171096;28;20430;-68
2023/04/19 10:22:01;;;;;;;;;;;;;;;10.20;56.61;101852.81;4171106;28;20842;-69
2023/04/19 10:24:03;;;;;;;;;;;;;;;10.23;56.63;101852.50;4169151;28;20024;-68
2023/04/19 10:26:06;;;;;;;;;;;;;;;10.21;56.93;101843.72;4170368;28;20012;-68
2023/04/19 10:28:08;;;;;;;;;;;;;;;10.25;56.67;101843.28;4170986;28;20017;-69
2023/04/19 10:30:17;;;;;;;;;;;;;;;10.27;56.82;101835.88;4170922;28;20007;-68
2023/04/19 10:32:18;;;;;;;;;;;;;;;10.26;57.12;101841.41;4170255;28;20063;-68
2023/04/19 10:34:35;;;;;;;;;;;;;;;10.25;57.01;101835.19;4171115;28;19929;-68
2023/04/19 10:36:37;;;;;;;;;;;;;;;10.29;56.65;101830.31;4169069;28;20427;-68
2023/04/19 10:38:42;;;;;;;;;;;;;;;10.34;56.65;101846.13;4170267;28;20031;-68
2023/04/19 10:40:59;;;;;;;;;;;;;;;10.34;56.70;101833.47;4170655;28;20417;-69
2023/04/19 10:43:18;;;;;;;;;;;;;;;10.35;56.84;101828.94;4177799;28;20857;-68